Impacts TAF Board INFO
FOR SITUATIONAL AWARENESS. NOT TO BE USED FOR FLIGHT PLANNING PURPOSES.
IDs:

KPDX - Portland Intl Arpt, OR, US

Issued at 1134 UTC 23 Jun 2018
Updated at 1341 UTC 23 Jun 2018
Potential Impact None Slight Moderate High
Time<<24/02Z 24/03Z 24/04Z 24/05Z 24/06Z 24/07Z 24/08Z 24/09Z 24/10Z 24/11Z 24/12Z 24/13Z 24/14Z>>
Type PRVL PRVL PRVL PRVL PRVL PRVL PRVL PRVL PRVL PRVL
VIS >6 >6 >6 >6 >6 >6 >6 >6 >6 >6
CIG -- -- -- -- -- -- -- -- -- --
Cover SCT SCT SCT SCT SCT SCT SKC SKC SKC SKC
FltCat VFR VFR VFR VFR VFR VFR VFR VFR VFR VFR
WX -- -- -- -- -- -- -- -- -- --
WDir 330 330 330 330 330 330 330 330 330 330
WSpd 7 7 7 7 7 7 3 3 3 3
WGst -- -- -- -- -- -- -- -- -- --

Raw TAF
KPDX 231134Z 2312/2412 34004KT P6SM OVC035
  FM231300 31004KT P6SM OVC030
  FM231600 31004KT P6SM BKN035
  FM231900 33007KT P6SM SCT040
  FM240800 33003KT P6SM SKC


METAR Board
Radar Display
Forecast Discussion

FOR SITUATIONAL AWARENESS. NOT TO BE USED FOR FLIGHT PLANNING PURPOSES.